sensor_id;sensor_type;location;lat;lon;timestamp;P1;durP1;ratioP1;P2;durP2;ratioP2
23668;SDS011;12011;47.422;15.018;2023-05-08T00:00:58;5.35;;;5.34;;
23668;SDS011;12011;47.422;15.018;2023-05-08T00:03:30;5.22;;;5.21;;
23668;SDS011;12011;47.422;15.018;2023-05-08T00:06:04;5.37;;;5.37;;
23668;SDS011;12011;47.422;15.018;2023-05-08T00:08:43;6.10;;;6.10;;
23668;SDS011;12011;47.422;15.018;2023-05-08T00:11:14;5.58;;;5.58;;
23668;SDS011;12011;47.422;15.018;2023-05-08T00:14:04;5.34;;;5.34;;
23668;SDS011;12011;47.422;15.018;2023-05-08T00:16:41;5.54;;;5.54;;
23668;SDS011;12011;47.422;15.018;2023-05-08T00:19:14;5.90;;;5.90;;
23668;SDS011;12011;47.422;15.018;2023-05-08T00:21:43;5.71;;;5.71;;
23668;SDS011;12011;47.422;15.018;2023-05-08T00:24:17;6.05;;;6.05;;
23668;SDS011;12011;47.422;15.018;2023-05-08T00:26:57;6.29;;;6.29;;
23668;SDS011;12011;47.422;15.018;2023-05-08T00:29:34;6.23;;;6.23;;
23668;SDS011;12011;47.422;15.018;2023-05-08T00:32:12;6.04;;;6.04;;
23668;SDS011;12011;47.422;15.018;2023-05-08T00:34:47;6.71;;;6.71;;
23668;SDS011;12011;47.422;15.018;2023-05-08T00:37:24;7.02;;;7.01;;
23668;SDS011;12011;47.422;15.018;2023-05-08T00:39:59;7.01;;;7.01;;
23668;SDS011;12011;47.422;15.018;2023-05-08T00:42:36;6.80;;;6.80;;
23668;SDS011;12011;47.422;15.018;2023-05-08T00:45:06;6.57;;;6.57;;
23668;SDS011;12011;47.422;15.018;2023-05-08T00:47:43;6.57;;;6.56;;
23668;SDS011;12011;47.422;15.018;2023-05-08T00:50:20;6.43;;;6.43;;
23668;SDS011;12011;47.422;15.018;2023-05-08T00:52:56;6.22;;;6.22;;
23668;SDS011;12011;47.422;15.018;2023-05-08T00:55:35;6.84;;;6.83;;
23668;SDS011;12011;47.422;15.018;2023-05-08T00:58:14;6.73;;;6.73;;
23668;SDS011;12011;47.422;15.018;2023-05-08T01:00:51;7.07;;;7.05;;
23668;SDS011;12011;47.422;15.018;2023-05-08T01:03:26;7.23;;;7.22;;
23668;SDS011;12011;47.422;15.018;2023-05-08T01:05:58;7.82;;;7.80;;
23668;SDS011;12011;47.422;15.018;2023-05-08T01:08:31;8.24;;;8.23;;
23668;SDS011;12011;47.422;15.018;2023-05-08T01:11:16;8.14;;;8.09;;
23668;SDS011;12011;47.422;15.018;2023-05-08T01:13:58;8.13;;;8.13;;
23668;SDS011;12011;47.422;15.018;2023-05-08T01:16:55;9.00;;;8.97;;
23668;SDS011;12011;47.422;15.018;2023-05-08T01:19:51;9.38;;;9.37;;
23668;SDS011;12011;47.422;15.018;2023-05-08T01:22:52;10.25;;;10.18;;
23668;SDS011;12011;47.422;15.018;2023-05-08T01:26:07;10.46;;;10.42;;
23668;SDS011;12011;47.422;15.018;2023-05-08T01:32:57;9.99;;;9.93;;
23668;SDS011;12011;47.422;15.018;2023-05-08T01:35:48;9.16;;;9.11;;
23668;SDS011;12011;47.422;15.018;2023-05-08T01:38:29;8.90;;;8.85;;
23668;SDS011;12011;47.422;15.018;2023-05-08T01:41:15;8.01;;;7.95;;
23668;SDS011;12011;47.422;15.018;2023-05-08T01:44:08;8.75;;;8.74;;
23668;SDS011;12011;47.422;15.018;2023-05-08T01:46:44;9.08;;;9.07;;
23668;SDS011;12011;47.422;15.018;2023-05-08T01:49:24;9.04;;;9.01;;
23668;SDS011;12011;47.422;15.018;2023-05-08T01:52:06;9.06;;;9.00;;
23668;SDS011;12011;47.422;15.018;2023-05-08T01:54:54;9.54;;;9.46;;
23668;SDS011;12011;47.422;15.018;2023-05-08T01:57:37;9.66;;;9.60;;
23668;SDS011;12011;47.422;15.018;2023-05-08T02:00:25;8.89;;;8.82;;
23668;SDS011;12011;47.422;15.018;2023-05-08T02:03:08;8.70;;;8.66;;
23668;SDS011;12011;47.422;15.018;2023-05-08T02:06:02;7.91;;;7.88;;
23668;SDS011;12011;47.422;15.018;2023-05-08T02:08:37;7.29;;;7.24;;
23668;SDS011;12011;47.422;15.018;2023-05-08T02:11:19;7.68;;;7.63;;
23668;SDS011;12011;47.422;15.018;2023-05-08T02:14:25;7.50;;;7.44;;
23668;SDS011;12011;47.422;15.018;2023-05-08T02:17:03;7.35;;;7.33;;
23668;SDS011;12011;47.422;15.018;2023-05-08T02:19:41;7.28;;;7.26;;
23668;SDS011;12011;47.422;15.018;2023-05-08T02:22:17;7.48;;;7.47;;
23668;SDS011;12011;47.422;15.018;2023-05-08T02:25:06;7.17;;;7.15;;
23668;SDS011;12011;47.422;15.018;2023-05-08T02:27:43;7.46;;;7.46;;
23668;SDS011;12011;47.422;15.018;2023-05-08T02:30:25;7.42;;;7.41;;
23668;SDS011;12011;47.422;15.018;2023-05-08T02:32:59;7.62;;;7.60;;
23668;SDS011;12011;47.422;15.018;2023-05-08T02:35:33;7.13;;;7.11;;
23668;SDS011;12011;47.422;15.018;2023-05-08T02:38:15;7.02;;;7.01;;
23668;SDS011;12011;47.422;15.018;2023-05-08T02:40:53;8.00;;;7.99;;
23668;SDS011;12011;47.422;15.018;2023-05-08T02:43:28;7.93;;;7.92;;
23668;SDS011;12011;47.422;15.018;2023-05-08T02:46:01;8.60;;;8.57;;
23668;SDS011;12011;47.422;15.018;2023-05-08T02:48:47;8.95;;;8.89;;
23668;SDS011;12011;47.422;15.018;2023-05-08T02:51:34;8.97;;;8.93;;
23668;SDS011;12011;47.422;15.018;2023-05-08T02:54:24;9.06;;;9.00;;
23668;SDS011;12011;47.422;15.018;2023-05-08T02:57:14;9.00;;;8.96;;
23668;SDS011;12011;47.422;15.018;2023-05-08T03:00:06;8.63;;;8.59;;
23668;SDS011;12011;47.422;15.018;2023-05-08T03:02:52;8.33;;;8.32;;
23668;SDS011;12011;47.422;15.018;2023-05-08T03:05:33;8.94;;;8.93;;
23668;SDS011;12011;47.422;15.018;2023-05-08T03:08:10;8.93;;;8.92;;
23668;SDS011;12011;47.422;15.018;2023-05-08T03:10:54;8.93;;;8.91;;
23668;SDS011;12011;47.422;15.018;2023-05-08T03:13:39;9.12;;;9.08;;
23668;SDS011;12011;47.422;15.018;2023-05-08T03:16:16;8.55;;;8.53;;
23668;SDS011;12011;47.422;15.018;2023-05-08T03:18:56;8.01;;;8.00;;
23668;SDS011;12011;47.422;15.018;2023-05-08T03:21:37;8.25;;;8.23;;
23668;SDS011;12011;47.422;15.018;2023-05-08T03:24:14;7.78;;;7.78;;
23668;SDS011;12011;47.422;15.018;2023-05-08T03:26:54;7.53;;;7.53;;
23668;SDS011;12011;47.422;15.018;2023-05-08T03:29:41;7.44;;;7.43;;
23668;SDS011;12011;47.422;15.018;2023-05-08T03:32:20;7.77;;;7.75;;
23668;SDS011;12011;47.422;15.018;2023-05-08T03:34:53;7.33;;;7.31;;
23668;SDS011;12011;47.422;15.018;2023-05-08T03:37:34;7.56;;;7.56;;
23668;SDS011;12011;47.422;15.018;2023-05-08T03:40:11;8.22;;;8.17;;
23668;SDS011;12011;47.422;15.018;2023-05-08T03:42:48;8.22;;;8.16;;
23668;SDS011;12011;47.422;15.018;2023-05-08T03:45:20;9.04;;;9.00;;
23668;SDS011;12011;47.422;15.018;2023-05-08T03:47:59;8.84;;;8.82;;
23668;SDS011;12011;47.422;15.018;2023-05-08T03:50:35;8.28;;;8.23;;
23668;SDS011;12011;47.422;15.018;2023-05-08T03:53:10;8.02;;;7.97;;
23668;SDS011;12011;47.422;15.018;2023-05-08T03:55:42;8.17;;;8.10;;
23668;SDS011;12011;47.422;15.018;2023-05-08T03:58:22;7.53;;;7.48;;
23668;SDS011;12011;47.422;15.018;2023-05-08T04:01:02;7.56;;;7.50;;
23668;SDS011;12011;47.422;15.018;2023-05-08T04:03:48;8.06;;;8.01;;
23668;SDS011;12011;47.422;15.018;2023-05-08T04:06:30;8.27;;;8.22;;
23668;SDS011;12011;47.422;15.018;2023-05-08T04:09:13;8.49;;;8.48;;
23668;SDS011;12011;47.422;15.018;2023-05-08T04:11:51;7.89;;;7.84;;
23668;SDS011;12011;47.422;15.018;2023-05-08T04:14:40;7.78;;;7.77;;
23668;SDS011;12011;47.422;15.018;2023-05-08T04:17:18;7.72;;;7.68;;
23668;SDS011;12011;47.422;15.018;2023-05-08T04:20:10;7.41;;;7.38;;
23668;SDS011;12011;47.422;15.018;2023-05-08T04:22:56;7.22;;;7.22;;
23668;SDS011;12011;47.422;15.018;2023-05-08T04:25:35;7.07;;;7.04;;
23668;SDS011;12011;47.422;15.018;2023-05-08T04:28:14;7.22;;;7.21;;
23668;SDS011;12011;47.422;15.018;2023-05-08T04:30:54;7.89;;;7.88;;
23668;SDS011;12011;47.422;15.018;2023-05-08T04:33:27;7.65;;;7.63;;
23668;SDS011;12011;47.422;15.018;2023-05-08T04:36:01;7.99;;;7.94;;
23668;SDS011;12011;47.422;15.018;2023-05-08T04:38:37;8.08;;;8.04;;
23668;SDS011;12011;47.422;15.018;2023-05-08T04:41:23;8.09;;;8.08;;
23668;SDS011;12011;47.422;15.018;2023-05-08T04:43:58;7.82;;;7.77;;
23668;SDS011;12011;47.422;15.018;2023-05-08T04:46:44;7.72;;;7.69;;
23668;SDS011;12011;47.422;15.018;2023-05-08T04:49:18;7.58;;;7.55;;
23668;SDS011;12011;47.422;15.018;2023-05-08T04:52:18;8.16;;;8.15;;
23668;SDS011;12011;47.422;15.018;2023-05-08T04:54:59;8.02;;;7.94;;
23668;SDS011;12011;47.422;15.018;2023-05-08T04:57:41;8.04;;;7.97;;
23668;SDS011;12011;47.422;15.018;2023-05-08T05:00:17;7.70;;;7.67;;
23668;SDS011;12011;47.422;15.018;2023-05-08T05:02:54;7.99;;;7.97;;
23668;SDS011;12011;47.422;15.018;2023-05-08T05:05:25;8.34;;;8.31;;
23668;SDS011;12011;47.422;15.018;2023-05-08T05:08:00;7.78;;;7.73;;
23668;SDS011;12011;47.422;15.018;2023-05-08T05:10:30;8.30;;;8.26;;
23668;SDS011;12011;47.422;15.018;2023-05-08T05:13:02;8.46;;;8.44;;
23668;SDS011;12011;47.422;15.018;2023-05-08T05:15:38;8.36;;;8.32;;
23668;SDS011;12011;47.422;15.018;2023-05-08T05:18:18;8.00;;;7.94;;
23668;SDS011;12011;47.422;15.018;2023-05-08T05:20:56;8.01;;;7.98;;
23668;SDS011;12011;47.422;15.018;2023-05-08T05:23:31;8.22;;;8.17;;
23668;SDS011;12011;47.422;15.018;2023-05-08T05:26:04;8.12;;;8.03;;
23668;SDS011;12011;47.422;15.018;2023-05-08T05:28:36;8.12;;;8.07;;
23668;SDS011;12011;47.422;15.018;2023-05-08T05:31:08;8.53;;;8.47;;
23668;SDS011;12011;47.422;15.018;2023-05-08T05:33:47;8.09;;;8.03;;
23668;SDS011;12011;47.422;15.018;2023-05-08T05:36:18;7.45;;;7.40;;
23668;SDS011;12011;47.422;15.018;2023-05-08T05:38:48;7.18;;;7.14;;
23668;SDS011;12011;47.422;15.018;2023-05-08T05:41:17;7.24;;;7.21;;
23668;SDS011;12011;47.422;15.018;2023-05-08T05:43:47;7.90;;;7.88;;
23668;SDS011;12011;47.422;15.018;2023-05-08T05:46:16;7.74;;;7.73;;
23668;SDS011;12011;47.422;15.018;2023-05-08T05:48:49;7.52;;;7.49;;
23668;SDS011;12011;47.422;15.018;2023-05-08T05:51:18;7.87;;;7.84;;
23668;SDS011;12011;47.422;15.018;2023-05-08T05:53:48;7.81;;;7.80;;
23668;SDS011;12011;47.422;15.018;2023-05-08T05:56:17;7.91;;;7.88;;
23668;SDS011;12011;47.422;15.018;2023-05-08T05:58:48;8.39;;;8.38;;
23668;SDS011;12011;47.422;15.018;2023-05-08T06:01:17;8.33;;;8.26;;
23668;SDS011;12011;47.422;15.018;2023-05-08T06:03:52;8.55;;;8.47;;
23668;SDS011;12011;47.422;15.018;2023-05-08T06:06:22;8.33;;;8.26;;
23668;SDS011;12011;47.422;15.018;2023-05-08T06:08:52;8.62;;;8.57;;
23668;SDS011;12011;47.422;15.018;2023-05-08T06:11:22;8.43;;;8.39;;
23668;SDS011;12011;47.422;15.018;2023-05-08T06:13:52;8.07;;;8.06;;
23668;SDS011;12011;47.422;15.018;2023-05-08T06:16:22;8.20;;;8.18;;
23668;SDS011;12011;47.422;15.018;2023-05-08T06:18:54;7.63;;;7.57;;
23668;SDS011;12011;47.422;15.018;2023-05-08T06:21:24;7.58;;;7.54;;
23668;SDS011;12011;47.422;15.018;2023-05-08T06:23:54;7.43;;;7.39;;
23668;SDS011;12011;47.422;15.018;2023-05-08T06:26:23;8.29;;;8.25;;
23668;SDS011;12011;47.422;15.018;2023-05-08T06:28:53;8.16;;;8.12;;
23668;SDS011;12011;47.422;15.018;2023-05-08T06:31:22;7.46;;;7.44;;
23668;SDS011;12011;47.422;15.018;2023-05-08T06:33:54;7.81;;;7.77;;
23668;SDS011;12011;47.422;15.018;2023-05-08T06:36:24;7.84;;;7.82;;
23668;SDS011;12011;47.422;15.018;2023-05-08T06:38:54;7.95;;;7.91;;
23668;SDS011;12011;47.422;15.018;2023-05-08T06:41:24;7.93;;;7.87;;
23668;SDS011;12011;47.422;15.018;2023-05-08T06:43:53;7.64;;;7.63;;
23668;SDS011;12011;47.422;15.018;2023-05-08T06:46:23;7.97;;;7.97;;
23668;SDS011;12011;47.422;15.018;2023-05-08T06:48:56;7.66;;;7.65;;
23668;SDS011;12011;47.422;15.018;2023-05-08T06:51:26;7.33;;;7.29;;
23668;SDS011;12011;47.422;15.018;2023-05-08T06:53:56;7.45;;;7.44;;
23668;SDS011;12011;47.422;15.018;2023-05-08T06:56:25;7.76;;;7.73;;
23668;SDS011;12011;47.422;15.018;2023-05-08T06:58:55;7.57;;;7.56;;
23668;SDS011;12011;47.422;15.018;2023-05-08T07:01:24;7.46;;;7.42;;
23668;SDS011;12011;47.422;15.018;2023-05-08T07:03:56;7.27;;;7.24;;
23668;SDS011;12011;47.422;15.018;2023-05-08T07:06:27;8.16;;;8.12;;
23668;SDS011;12011;47.422;15.018;2023-05-08T07:08:57;7.45;;;7.37;;
23668;SDS011;12011;47.422;15.018;2023-05-08T07:11:26;7.50;;;7.46;;
23668;SDS011;12011;47.422;15.018;2023-05-08T07:13:56;7.38;;;7.36;;
23668;SDS011;12011;47.422;15.018;2023-05-08T07:16:25;7.15;;;7.13;;
23668;SDS011;12011;47.422;15.018;2023-05-08T07:18:57;7.55;;;7.49;;
23668;SDS011;12011;47.422;15.018;2023-05-08T07:21:27;7.70;;;7.67;;
23668;SDS011;12011;47.422;15.018;2023-05-08T07:23:57;7.14;;;7.10;;
23668;SDS011;12011;47.422;15.018;2023-05-08T07:26:26;6.97;;;6.93;;
23668;SDS011;12011;47.422;15.018;2023-05-08T07:28:56;7.70;;;7.67;;
23668;SDS011;12011;47.422;15.018;2023-05-08T07:31:25;7.62;;;7.60;;
23668;SDS011;12011;47.422;15.018;2023-05-08T07:33:58;6.86;;;6.85;;
23668;SDS011;12011;47.422;15.018;2023-05-08T07:36:27;7.11;;;7.08;;
23668;SDS011;12011;47.422;15.018;2023-05-08T07:38:57;6.62;;;6.59;;
23668;SDS011;12011;47.422;15.018;2023-05-08T07:41:26;5.48;;;5.47;;
23668;SDS011;12011;47.422;15.018;2023-05-08T07:43:56;5.63;;;5.62;;
23668;SDS011;12011;47.422;15.018;2023-05-08T07:46:25;5.45;;;5.44;;
23668;SDS011;12011;47.422;15.018;2023-05-08T07:48:57;5.52;;;5.51;;
23668;SDS011;12011;47.422;15.018;2023-05-08T07:51:27;5.54;;;5.53;;
23668;SDS011;12011;47.422;15.018;2023-05-08T07:53:57;5.30;;;5.28;;
23668;SDS011;12011;47.422;15.018;2023-05-08T07:56:26;5.27;;;5.26;;
23668;SDS011;12011;47.422;15.018;2023-05-08T07:58:56;5.09;;;5.07;;
23668;SDS011;12011;47.422;15.018;2023-05-08T08:01:25;4.69;;;4.67;;
23668;SDS011;12011;47.422;15.018;2023-05-08T08:03:57;4.61;;;4.59;;
23668;SDS011;12011;47.422;15.018;2023-05-08T08:06:27;4.60;;;4.60;;
23668;SDS011;12011;47.422;15.018;2023-05-08T08:08:57;4.78;;;4.77;;
23668;SDS011;12011;47.422;15.018;2023-05-08T08:11:26;6.19;;;6.15;;
23668;SDS011;12011;47.422;15.018;2023-05-08T08:13:56;5.43;;;5.41;;
23668;SDS011;12011;47.422;15.018;2023-05-08T08:16:25;4.58;;;4.56;;
23668;SDS011;12011;47.422;15.018;2023-05-08T08:18:58;4.77;;;4.75;;
23668;SDS011;12011;47.422;15.018;2023-05-08T08:21:27;4.51;;;4.49;;
23668;SDS011;12011;47.422;15.018;2023-05-08T08:23:57;4.42;;;4.42;;
23668;SDS011;12011;47.422;15.018;2023-05-08T08:26:27;4.29;;;4.29;;
23668;SDS011;12011;47.422;15.018;2023-05-08T08:28:56;4.08;;;4.08;;
23668;SDS011;12011;47.422;15.018;2023-05-08T08:31:26;4.19;;;4.19;;
23668;SDS011;12011;47.422;15.018;2023-05-08T08:33:58;3.88;;;3.87;;
23668;SDS011;12011;47.422;15.018;2023-05-08T08:36:28;4.39;;;4.39;;
23668;SDS011;12011;47.422;15.018;2023-05-08T08:38:58;4.10;;;4.10;;
23668;SDS011;12011;47.422;15.018;2023-05-08T08:41:27;3.94;;;3.94;;
23668;SDS011;12011;47.422;15.018;2023-05-08T08:43:57;3.77;;;3.76;;
23668;SDS011;12011;47.422;15.018;2023-05-08T08:46:27;3.89;;;3.88;;
23668;SDS011;12011;47.422;15.018;2023-05-08T08:49:01;3.59;;;3.59;;
23668;SDS011;12011;47.422;15.018;2023-05-08T08:51:35;3.83;;;3.83;;
23668;SDS011;12011;47.422;15.018;2023-05-08T08:54:11;3.61;;;3.61;;
23668;SDS011;12011;47.422;15.018;2023-05-08T08:56:43;3.60;;;3.60;;
23668;SDS011;12011;47.422;15.018;2023-05-08T08:59:16;3.28;;;3.28;;
23668;SDS011;12011;47.422;15.018;2023-05-08T09:01:47;3.67;;;3.66;;
23668;SDS011;12011;47.422;15.018;2023-05-08T09:04:25;3.41;;;3.39;;
23668;SDS011;12011;47.422;15.018;2023-05-08T09:06:56;3.41;;;3.41;;
23668;SDS011;12011;47.422;15.018;2023-05-08T09:09:29;3.35;;;3.35;;
23668;SDS011;12011;47.422;15.018;2023-05-08T09:12:00;3.39;;;3.39;;
23668;SDS011;12011;47.422;15.018;2023-05-08T09:14:30;2.99;;;2.99;;
23668;SDS011;12011;47.422;15.018;2023-05-08T09:16:59;2.89;;;2.89;;
23668;SDS011;12011;47.422;15.018;2023-05-08T09:19:32;2.96;;;2.96;;
23668;SDS011;12011;47.422;15.018;2023-05-08T09:22:02;3.16;;;3.15;;
23668;SDS011;12011;47.422;15.018;2023-05-08T09:24:53;3.38;;;3.38;;
23668;SDS011;12011;47.422;15.018;2023-05-08T09:27:25;2.88;;;2.88;;
23668;SDS011;12011;47.422;15.018;2023-05-08T09:29:57;3.33;;;3.33;;
23668;SDS011;12011;47.422;15.018;2023-05-08T09:32:32;3.18;;;3.18;;
23668;SDS011;12011;47.422;15.018;2023-05-08T09:35:06;3.24;;;3.24;;
23668;SDS011;12011;47.422;15.018;2023-05-08T09:37:37;3.30;;;3.30;;
23668;SDS011;12011;47.422;15.018;2023-05-08T09:40:12;3.46;;;3.46;;
23668;SDS011;12011;47.422;15.018;2023-05-08T09:42:47;3.33;;;3.32;;
23668;SDS011;12011;47.422;15.018;2023-05-08T09:45:27;3.19;;;3.19;;
23668;SDS011;12011;47.422;15.018;2023-05-08T09:47:59;2.87;;;2.87;;
23668;SDS011;12011;47.422;15.018;2023-05-08T09:50:32;2.94;;;2.94;;
23668;SDS011;12011;47.422;15.018;2023-05-08T09:53:01;3.04;;;3.04;;
23668;SDS011;12011;47.422;15.018;2023-05-08T09:55:44;2.90;;;2.90;;
23668;SDS011;12011;47.422;15.018;2023-05-08T09:58:14;2.63;;;2.63;;
23668;SDS011;12011;47.422;15.018;2023-05-08T10:00:44;2.79;;;2.79;;
23668;SDS011;12011;47.422;15.018;2023-05-08T10:03:13;2.58;;;2.58;;
23668;SDS011;12011;47.422;15.018;2023-05-08T10:05:46;2.38;;;2.38;;
23668;SDS011;12011;47.422;15.018;2023-05-08T10:08:19;2.50;;;2.50;;
23668;SDS011;12011;47.422;15.018;2023-05-08T10:10:51;2.62;;;2.62;;
23668;SDS011;12011;47.422;15.018;2023-05-08T10:13:21;2.62;;;2.62;;
23668;SDS011;12011;47.422;15.018;2023-05-08T10:15:50;2.50;;;2.50;;
23668;SDS011;12011;47.422;15.018;2023-05-08T10:18:24;2.51;;;2.51;;
23668;SDS011;12011;47.422;15.018;2023-05-08T10:21:05;2.46;;;2.46;;
23668;SDS011;12011;47.422;15.018;2023-05-08T10:23:36;2.63;;;2.63;;
23668;SDS011;12011;47.422;15.018;2023-05-08T10:26:10;2.31;;;2.31;;
23668;SDS011;12011;47.422;15.018;2023-05-08T10:28:49;2.63;;;2.63;;
23668;SDS011;12011;47.422;15.018;2023-05-08T10:31:25;2.52;;;2.52;;
23668;SDS011;12011;47.422;15.018;2023-05-08T10:33:57;2.41;;;2.41;;
23668;SDS011;12011;47.422;15.018;2023-05-08T10:36:32;2.51;;;2.51;;
23668;SDS011;12011;47.422;15.018;2023-05-08T10:39:04;2.52;;;2.52;;
23668;SDS011;12011;47.422;15.018;2023-05-08T10:41:35;2.40;;;2.40;;
23668;SDS011;12011;47.422;15.018;2023-05-08T10:44:09;2.12;;;2.12;;
23668;SDS011;12011;47.422;15.018;2023-05-08T10:46:42;2.27;;;2.24;;
23668;SDS011;12011;47.422;15.018;2023-05-08T10:49:24;2.29;;;2.29;;
23668;SDS011;12011;47.422;15.018;2023-05-08T10:52:14;2.32;;;2.32;;
23668;SDS011;12011;47.422;15.018;2023-05-08T10:55:00;2.05;;;2.05;;
23668;SDS011;12011;47.422;15.018;2023-05-08T11:03:41;2.08;;;2.08;;
23668;SDS011;12011;47.422;15.018;2023-05-08T11:06:18;2.10;;;2.10;;
23668;SDS011;12011;47.422;15.018;2023-05-08T11:09:22;2.29;;;2.29;;
23668;SDS011;12011;47.422;15.018;2023-05-08T11:12:06;1.76;;;1.76;;
23668;SDS011;12011;47.422;15.018;2023-05-08T11:14:57;2.08;;;2.08;;
23668;SDS011;12011;47.422;15.018;2023-05-08T11:17:37;2.24;;;2.24;;
23668;SDS011;12011;47.422;15.018;2023-05-08T11:20:12;2.37;;;2.37;;
23668;SDS011;12011;47.422;15.018;2023-05-08T11:22:46;1.99;;;1.99;;
23668;SDS011;12011;47.422;15.018;2023-05-08T11:25:21;1.97;;;1.97;;
23668;SDS011;12011;47.422;15.018;2023-05-08T11:28:17;2.06;;;2.06;;
23668;SDS011;12011;47.422;15.018;2023-05-08T11:30:51;2.02;;;2.02;;
23668;SDS011;12011;47.422;15.018;2023-05-08T11:33:28;1.97;;;1.97;;
23668;SDS011;12011;47.422;15.018;2023-05-08T11:36:11;2.35;;;2.35;;
23668;SDS011;12011;47.422;15.018;2023-05-08T11:38:43;2.23;;;2.23;;
23668;SDS011;12011;47.422;15.018;2023-05-08T11:41:41;2.15;;;2.15;;
23668;SDS011;12011;47.422;15.018;2023-05-08T11:44:16;2.11;;;2.11;;
23668;SDS011;12011;47.422;15.018;2023-05-08T11:46:59;2.13;;;2.13;;
23668;SDS011;12011;47.422;15.018;2023-05-08T11:49:32;2.42;;;2.42;;
23668;SDS011;12011;47.422;15.018;2023-05-08T11:52:04;2.14;;;2.14;;
23668;SDS011;12011;47.422;15.018;2023-05-08T11:54:35;2.01;;;2.01;;
23668;SDS011;12011;47.422;15.018;2023-05-08T11:57:19;2.23;;;2.23;;
23668;SDS011;12011;47.422;15.018;2023-05-08T11:59:51;2.19;;;2.19;;
23668;SDS011;12011;47.422;15.018;2023-05-08T12:02:33;1.93;;;1.93;;
23668;SDS011;12011;47.422;15.018;2023-05-08T12:05:07;2.12;;;2.12;;
23668;SDS011;12011;47.422;15.018;2023-05-08T12:07:42;2.11;;;2.11;;
23668;SDS011;12011;47.422;15.018;2023-05-08T12:10:14;1.90;;;1.90;;
23668;SDS011;12011;47.422;15.018;2023-05-08T12:12:47;1.94;;;1.94;;
23668;SDS011;12011;47.422;15.018;2023-05-08T12:15:20;1.90;;;1.90;;
23668;SDS011;12011;47.422;15.018;2023-05-08T12:17:59;1.58;;;1.58;;
23668;SDS011;12011;47.422;15.018;2023-05-08T12:20:31;1.61;;;1.61;;
23668;SDS011;12011;47.422;15.018;2023-05-08T12:23:04;1.83;;;1.83;;
23668;SDS011;12011;47.422;15.018;2023-05-08T12:25:38;1.83;;;1.83;;
23668;SDS011;12011;47.422;15.018;2023-05-08T12:28:15;1.82;;;1.82;;
23668;SDS011;12011;47.422;15.018;2023-05-08T12:30:47;1.70;;;1.70;;
23668;SDS011;12011;47.422;15.018;2023-05-08T12:33:27;1.77;;;1.77;;
23668;SDS011;12011;47.422;15.018;2023-05-08T12:35:59;2.15;;;2.15;;
23668;SDS011;12011;47.422;15.018;2023-05-08T12:38:31;1.82;;;1.82;;
23668;SDS011;12011;47.422;15.018;2023-05-08T12:41:01;2.08;;;2.08;;
23668;SDS011;12011;47.422;15.018;2023-05-08T12:43:37;1.88;;;1.88;;
23668;SDS011;12011;47.422;15.018;2023-05-08T12:46:14;1.87;;;1.87;;
23668;SDS011;12011;47.422;15.018;2023-05-08T12:48:49;1.95;;;1.95;;
23668;SDS011;12011;47.422;15.018;2023-05-08T12:51:35;1.96;;;1.96;;
23668;SDS011;12011;47.422;15.018;2023-05-08T12:54:05;1.84;;;1.84;;
23668;SDS011;12011;47.422;15.018;2023-05-08T12:56:40;1.71;;;1.71;;
23668;SDS011;12011;47.422;15.018;2023-05-08T12:59:14;1.89;;;1.89;;
23668;SDS011;12011;47.422;15.018;2023-05-08T13:01:50;1.80;;;1.80;;
23668;SDS011;12011;47.422;15.018;2023-05-08T13:04:20;2.00;;;2.00;;
23668;SDS011;12011;47.422;15.018;2023-05-08T13:06:53;2.03;;;2.03;;
23668;SDS011;12011;47.422;15.018;2023-05-08T13:09:23;1.86;;;1.86;;
23668;SDS011;12011;47.422;15.018;2023-05-08T13:11:53;2.14;;;2.14;;
23668;SDS011;12011;47.422;15.018;2023-05-08T13:14:25;2.00;;;2.00;;
23668;SDS011;12011;47.422;15.018;2023-05-08T13:16:54;2.22;;;2.22;;
23668;SDS011;12011;47.422;15.018;2023-05-08T13:19:24;2.16;;;2.16;;
23668;SDS011;12011;47.422;15.018;2023-05-08T13:21:55;2.55;;;2.55;;
23668;SDS011;12011;47.422;15.018;2023-05-08T13:24:24;2.49;;;2.49;;
23668;SDS011;12011;47.422;15.018;2023-05-08T13:26:54;2.64;;;2.64;;
23668;SDS011;12011;47.422;15.018;2023-05-08T13:29:26;2.67;;;2.67;;
23668;SDS011;12011;47.422;15.018;2023-05-08T13:31:56;2.43;;;2.43;;
23668;SDS011;12011;47.422;15.018;2023-05-08T13:34:25;2.37;;;2.37;;
23668;SDS011;12011;47.422;15.018;2023-05-08T13:36:55;2.66;;;2.66;;
23668;SDS011;12011;47.422;15.018;2023-05-08T13:39:24;2.44;;;2.44;;
23668;SDS011;12011;47.422;15.018;2023-05-08T13:41:56;2.64;;;2.64;;
23668;SDS011;12011;47.422;15.018;2023-05-08T13:44:28;2.61;;;2.61;;
23668;SDS011;12011;47.422;15.018;2023-05-08T13:46:58;2.65;;;2.65;;
23668;SDS011;12011;47.422;15.018;2023-05-08T13:49:27;2.67;;;2.67;;
23668;SDS011;12011;47.422;15.018;2023-05-08T13:51:57;2.74;;;2.74;;
23668;SDS011;12011;47.422;15.018;2023-05-08T13:54:27;2.96;;;2.96;;
23668;SDS011;12011;47.422;15.018;2023-05-08T13:56:56;2.66;;;2.66;;
23668;SDS011;12011;47.422;15.018;2023-05-08T13:59:29;3.15;;;3.15;;
23668;SDS011;12011;47.422;15.018;2023-05-08T14:01:59;2.88;;;2.88;;
23668;SDS011;12011;47.422;15.018;2023-05-08T14:04:28;3.39;;;3.39;;
23668;SDS011;12011;47.422;15.018;2023-05-08T14:06:58;3.08;;;3.05;;
23668;SDS011;12011;47.422;15.018;2023-05-08T14:09:28;3.12;;;3.12;;
23668;SDS011;12011;47.422;15.018;2023-05-08T14:11:57;3.15;;;3.15;;
23668;SDS011;12011;47.422;15.018;2023-05-08T14:14:30;3.30;;;3.30;;
23668;SDS011;12011;47.422;15.018;2023-05-08T14:16:59;3.39;;;3.39;;
23668;SDS011;12011;47.422;15.018;2023-05-08T14:19:30;3.38;;;3.38;;
23668;SDS011;12011;47.422;15.018;2023-05-08T14:22:00;3.47;;;3.47;;
23668;SDS011;12011;47.422;15.018;2023-05-08T14:24:31;3.48;;;3.48;;
23668;SDS011;12011;47.422;15.018;2023-05-08T14:27:01;3.45;;;3.45;;
23668;SDS011;12011;47.422;15.018;2023-05-08T14:29:33;3.14;;;3.14;;
23668;SDS011;12011;47.422;15.018;2023-05-08T14:32:03;3.87;;;3.87;;
23668;SDS011;12011;47.422;15.018;2023-05-08T14:34:33;3.71;;;3.71;;
23668;SDS011;12011;47.422;15.018;2023-05-08T14:37:03;3.61;;;3.61;;
23668;SDS011;12011;47.422;15.018;2023-05-08T14:39:33;4.29;;;4.27;;
23668;SDS011;12011;47.422;15.018;2023-05-08T14:42:02;4.02;;;3.99;;
23668;SDS011;12011;47.422;15.018;2023-05-08T14:44:35;3.88;;;3.88;;
23668;SDS011;12011;47.422;15.018;2023-05-08T14:47:04;3.91;;;3.91;;
23668;SDS011;12011;47.422;15.018;2023-05-08T14:49:34;3.95;;;3.95;;
23668;SDS011;12011;47.422;15.018;2023-05-08T14:52:04;4.04;;;4.04;;
23668;SDS011;12011;47.422;15.018;2023-05-08T14:54:33;3.75;;;3.75;;
23668;SDS011;12011;47.422;15.018;2023-05-08T14:57:03;3.96;;;3.96;;
23668;SDS011;12011;47.422;15.018;2023-05-08T14:59:35;4.06;;;4.06;;
23668;SDS011;12011;47.422;15.018;2023-05-08T15:02:05;4.16;;;4.15;;
23668;SDS011;12011;47.422;15.018;2023-05-08T15:04:35;4.39;;;4.39;;
23668;SDS011;12011;47.422;15.018;2023-05-08T15:07:06;4.66;;;4.59;;
23668;SDS011;12011;47.422;15.018;2023-05-08T15:09:35;4.63;;;4.55;;
23668;SDS011;12011;47.422;15.018;2023-05-08T15:12:05;4.83;;;4.79;;
23668;SDS011;12011;47.422;15.018;2023-05-08T15:14:37;4.55;;;4.55;;
23668;SDS011;12011;47.422;15.018;2023-05-08T15:17:07;4.45;;;4.45;;
23668;SDS011;12011;47.422;15.018;2023-05-08T15:19:36;4.79;;;4.74;;
23668;SDS011;12011;47.422;15.018;2023-05-08T15:22:07;4.98;;;4.98;;
23668;SDS011;12011;47.422;15.018;2023-05-08T15:24:36;4.92;;;4.92;;
23668;SDS011;12011;47.422;15.018;2023-05-08T15:27:06;4.97;;;4.97;;
23668;SDS011;12011;47.422;15.018;2023-05-08T15:29:39;4.83;;;4.78;;